Time;durP1;ratioP1;P1;durP2;ratioP2;P2;SDS_P1;SDS_P2;PMS_P1;PMS_P2;Temp;Humidity;BMP_temperature;BMP_pressure;BME280_temperature;BME280_humidity;BME280_pressure;Samples;Min_cycle;Max_cycle;Signal;HPM_P1;HPM_P2
2022/06/03 00:01:52;;;;;;;;;5.00;5.00;;;;;20.83;36.04;100730.03;6149536;23;45443;-87
2022/06/03 00:04:47;;;;;;;;;5.00;5.00;;;;;20.78;36.05;100730.19;6143879;23;44825;-87
2022/06/03 00:08:00;;;;;;;;;4.00;4.00;;;;;20.75;35.91;100726.69;6169639;22;45729;-87
2022/06/03 00:10:56;;;;;;;;;6.33;6.33;;;;;20.72;36.03;100733.06;6145267;23;44942;-87
2022/06/03 00:14:00;;;;;;;;;5.67;5.00;;;;;20.38;36.29;100687.16;6143060;23;47175;-86
2022/06/03 00:17:27;;;;;;;;;;;;;;;;;;;;;
2022/06/03 00:20:32;;;;;;;;;6.00;4.67;;;;;20.60;36.29;100722.56;6106337;23;68464;-86
2022/06/03 00:23:06;;;;;;;;;4.00;4.00;;;;;20.58;36.34;100719.94;6081544;23;44877;-86
2022/06/03 00:26:02;;;;;;;;;5.00;5.00;;;;;20.59;36.05;100726.22;6106536;23;46783;-86
2022/06/03 00:28:45;;;;;;;;;5.67;5.67;;;;;20.29;36.48;100677.47;6106610;23;45595;-86
2022/06/03 00:31:49;;;;;;;;;7.00;5.00;;;;;20.53;36.84;100715.53;6108618;23;45332;-86
2022/06/03 00:34:35;;;;;;;;;4.00;4.00;;;;;20.16;36.97;100666.09;6106990;23;45349;-86
2022/06/03 00:37:33;;;;;;;;;6.00;5.00;;;;;20.47;36.58;100722.00;6105501;23;45355;-86
2022/06/03 00:40:29;;;;;;;;;5.33;5.00;;;;;20.14;36.74;100670.66;6164877;23;44779;-85
2022/06/03 00:43:45;;;;;;;;;3.67;3.33;;;;;20.13;36.65;100682.38;6141909;22;44855;-85
2022/06/03 00:46:58;;;;;;;;;4.00;3.67;;;;;20.18;36.79;100693.97;6141980;23;44811;-86
2022/06/03 00:50:03;;;;;;;;;4.00;4.00;;;;;20.37;36.61;100725.88;6142398;23;45435;-86
2022/06/03 00:53:03;;;;;;;;;7.00;5.33;;;;;20.39;36.56;100724.03;6167516;23;44807;-87
2022/06/03 00:55:39;;;;;;;;;4.00;4.00;;;;;20.39;36.92;100730.31;6190861;22;44968;-86
2022/06/03 00:58:49;;;;;;;;;5.00;5.00;;;;;20.21;36.69;100697.50;6234737;22;45188;-86
2022/06/03 01:01:27;;;;;;;;;4.00;4.00;;;;;20.38;36.94;100730.38;6166685;23;45826;-86
2022/06/03 01:04:24;;;;;;;;;3.00;3.00;;;;;20.06;36.68;100683.50;6166178;22;45751;-86
2022/06/03 01:07:18;;;;;;;;;5.00;4.00;;;;;20.29;36.87;100728.78;6167381;22;44702;-87
2022/06/03 01:10:12;;;;;;;;;5.00;5.00;;;;;20.32;36.98;100735.91;6142317;23;45286;-86
2022/06/03 01:13:20;;;;;;;;;5.00;3.67;;;;;20.03;36.82;100680.84;6165555;22;46963;-87
2022/06/03 01:16:23;;;;;;;;;4.00;4.00;;;;;20.26;37.08;100718.06;6142256;23;45361;-86
2022/06/03 01:19:00;;;;;;;;;5.67;5.33;;;;;19.98;36.84;100677.41;6166903;23;45474;-86
2022/06/03 01:22:07;;;;;;;;;6.00;5.00;;;;;20.18;36.83;100720.09;6167689;23;45409;-86
2022/06/03 01:25:34;;;;;;;;;4.67;4.67;;;;;19.94;37.14;100683.81;6053298;23;45261;-87
2022/06/03 01:28:36;;;;;;;;;5.00;5.00;;;;;20.08;37.25;100714.03;5936235;23;45474;-86
2022/06/03 01:31:18;;;;;;;;;3.00;3.00;;;;;20.06;37.14;100713.19;5935655;23;44775;-86
2022/06/03 01:34:05;;;;;;;;;6.67;6.67;;;;;20.05;37.41;100708.69;5935953;23;44945;-87
2022/06/03 01:36:53;;;;;;;;;4.00;3.33;;;;;20.02;37.28;100706.09;5971442;23;46954;-87
2022/06/03 01:40:05;;;;;;;;;5.00;4.00;;;;;19.97;37.51;100711.59;6021629;23;44739;-86
2022/06/03 01:42:36;;;;;;;;;3.00;3.00;;;;;19.90;37.79;100709.09;6021490;23;44902;-87
2022/06/03 01:45:33;;;;;;;;;5.00;5.00;;;;;19.87;37.73;100709.16;6021499;23;45530;-87
2022/06/03 01:48:32;;;;;;;;;3.67;3.67;;;;;19.58;37.54;100664.88;6018389;23;46695;-86
2022/06/03 01:51:55;;;;;;;;;3.67;3.67;;;;;19.45;38.14;100648.09;6018554;23;45427;-86
2022/06/03 01:55:05;;;;;;;;;4.33;4.33;;;;;19.71;37.82;100687.06;6018886;23;45360;-86
2022/06/03 01:58:01;;;;;;;;;4.67;4.67;;;;;19.68;37.99;100682.59;5995376;23;45409;-87
2022/06/03 02:00:43;;;;;;;;;3.67;3.67;;;;;19.68;37.56;100682.59;6011845;23;45452;-86
2022/06/03 02:03:49;;;;;;;;;;;;;;;;;;;;;
2022/06/03 02:07:00;;;;;;;;;3.33;3.33;;;;;19.74;37.55;100690.56;6226929;22;67886;-86
2022/06/03 02:10:05;;;;;;;;;4.00;4.00;;;;;19.64;37.71;100672.81;6201556;22;44853;-86
2022/06/03 02:13:02;;;;;;;;;4.00;4.00;;;;;19.70;37.60;100669.97;6201644;22;47255;-86
2022/06/03 02:15:55;;;;;;;;;4.00;4.00;;;;;19.71;38.11;100676.25;6226028;22;45219;-86
2022/06/03 02:22:24;;;;;;;;;4.33;4.33;;;;;19.61;39.10;100669.28;6228205;22;44752;-86
2022/06/03 02:25:16;;;;;;;;;4.33;4.33;;;;;19.36;39.27;100633.00;6226170;22;45194;-86
2022/06/03 02:28:09;;;;;;;;;5.00;5.00;;;;;19.49;38.88;100659.69;6200295;22;45395;-87
2022/06/03 02:31:01;;;;;;;;;5.00;5.00;;;;;19.46;38.90;100649.88;6227136;22;45303;-86
2022/06/03 02:34:15;;;;;;;;;5.00;5.00;;;;;19.12;39.01;100596.72;6219616;22;45272;-87
2022/06/03 02:37:24;;;;;;;;;8.33;5.00;;;;;19.39;38.74;100638.34;6234692;22;46980;-87
2022/06/03 02:39:56;;;;;;;;;3.33;3.33;;;;;19.38;39.04;100647.34;6261088;22;45441;-86
2022/06/03 02:42:40;;;;;;;;;4.33;4.33;;;;;19.37;38.65;100634.78;6234676;22;44686;-86
2022/06/03 02:45:42;;;;;;;;;5.00;5.00;;;;;19.35;39.64;100630.34;6234632;22;45322;-86
2022/06/03 02:48:26;;;;;;;;;3.00;3.00;;;;;19.08;39.64;100604.94;6230204;22;45406;-86
2022/06/03 02:51:43;;;;;;;;;8.00;6.00;;;;;19.21;39.43;100627.09;6233201;22;45401;-86
2022/06/03 02:54:35;;;;;;;;;5.67;5.67;;;;;19.17;39.77;100632.56;6210509;22;45408;-86
2022/06/03 02:57:43;;;;;;;;;3.67;3.67;;;;;19.15;40.07;100629.03;6233927;22;45517;-86
2022/06/03 03:00:40;;;;;;;;;4.00;4.00;;;;;19.12;39.94;100628.19;6234515;22;48069;-86
2022/06/03 03:03:34;;;;;;;;;4.00;4.00;;;;;18.82;40.00;100598.31;6220229;22;44825;-86
2022/06/03 03:06:41;;;;;;;;;4.67;4.67;;;;;19.07;39.99;100641.78;6229511;22;45390;-86
2022/06/03 03:09:42;;;;;;;;;5.33;5.00;;;;;19.09;40.02;100634.56;6203241;22;44888;-86
2022/06/03 03:12:32;;;;;;;;;5.00;5.00;;;;;19.09;39.86;100628.28;6107424;23;46593;-86
2022/06/03 03:19:08;;;;;;;;;;;;;;;;;;;;;
2022/06/03 03:22:21;;;;;;;;;4.00;4.00;;;;;18.95;39.95;100591.75;6106391;23;65236;-86
2022/06/03 03:25:04;;;;;;;;;4.00;4.00;;;;;19.13;39.71;100625.47;6108867;23;45623;-85
2022/06/03 03:28:12;;;;;;;;;6.00;6.00;;;;;19.11;39.61;100626.44;6109794;23;44844;-86
2022/06/03 03:30:46;;;;;;;;;3.67;3.67;;;;;19.08;39.78;100639.97;6109271;23;45792;-86
2022/06/03 03:33:47;;;;;;;;;5.67;4.00;;;;;19.16;39.94;100640.69;6110161;23;44829;-86
2022/06/03 03:36:42;;;;;;;;;5.33;4.33;;;;;19.16;39.73;100643.38;6109476;23;45324;-86
2022/06/03 03:39:41;;;;;;;;;4.33;4.33;;;;;19.16;39.86;100629.91;6109515;23;44716;-86
2022/06/03 03:42:28;;;;;;;;;5.67;5.67;;;;;19.16;39.93;100619.13;6108371;23;45389;-86
2022/06/03 03:45:39;;;;;;;;;5.00;5.00;;;;;19.16;39.78;100620.00;6109047;23;45431;-86
2022/06/03 03:48:39;;;;;;;;;4.00;4.00;;;;;19.17;39.80;100616.41;6098462;22;46785;-87
2022/06/03 03:51:23;;;;;;;;;3.00;3.00;;;;;19.13;39.86;100617.38;6204211;22;44715;-87
2022/06/03 03:54:10;;;;;;;;;6.00;5.00;;;;;19.11;40.05;100613.84;6201614;22;45399;-87
2022/06/03 03:56:48;;;;;;;;;5.67;4.00;;;;;19.08;40.35;100624.69;6204914;22;44956;-87
2022/06/03 03:59:22;;;;;;;;;3.67;3.00;;;;;19.05;39.84;100623.88;6230657;22;45362;-86
2022/06/03 04:02:06;;;;;;;;;4.00;4.00;;;;;19.05;40.27;100630.16;6229738;22;45308;-86
2022/06/03 04:05:09;;;;;;;;;6.00;6.00;;;;;19.06;39.88;100633.72;6233176;22;45236;-86
2022/06/03 04:08:17;;;;;;;;;6.00;6.00;;;;;19.04;40.40;100632.88;6262677;22;45366;-87
2022/06/03 04:11:09;;;;;;;;;5.67;4.67;;;;;19.06;40.42;100644.50;6258681;22;47124;-87
2022/06/03 04:14:06;;;;;;;;;7.00;5.00;;;;;19.08;40.35;100637.28;6234886;22;45473;-86
2022/06/03 04:17:00;;;;;;;;;4.00;4.00;;;;;19.13;40.11;100635.38;6234911;22;44736;-86
2022/06/03 04:20:08;;;;;;;;;5.67;5.67;;;;;19.17;41.37;100624.47;6236506;22;45358;-86
2022/06/03 04:23:08;;;;;;;;;6.67;6.67;;;;;19.24;41.14;100629.72;6235642;22;46731;-86
2022/06/03 04:26:14;;;;;;;;;8.00;8.00;;;;;19.31;41.93;100626.84;6236631;22;45299;-86
2022/06/03 04:29:39;;;;;;;;;8.00;8.00;;;;;19.42;42.15;100618.50;6235083;22;44756;-86
2022/06/03 04:32:35;;;;;;;;;11.33;9.67;;;;;19.53;41.95;100613.75;6235134;22;45434;-86
2022/06/03 04:35:41;;;;;;;;;8.33;8.33;;;;;19.64;41.81;100624.25;6236046;22;46881;-85
2022/06/03 04:38:44;;;;;;;;;9.33;9.33;;;;;19.67;42.00;100626.84;6236220;22;44678;-86
2022/06/03 04:41:47;;;;;;;;;8.67;8.67;;;;;19.70;42.16;100632.19;6236335;22;44673;-87
2022/06/03 04:45:03;;;;;;;;;10.00;8.67;;;;;19.65;42.13;100633.22;6234891;22;44908;-86
2022/06/03 04:48:01;;;;;;;;;8.67;8.67;;;;;19.65;41.41;100633.22;6254289;22;45836;-86
2022/06/03 04:51:09;;;;;;;;;9.67;8.00;;;;;19.70;41.74;100642.09;6260181;22;45208;-86
2022/06/03 04:54:08;;;;;;;;;10.00;8.00;;;;;19.65;41.81;100634.09;6234146;22;45184;-87
2022/06/03 04:57:16;;;;;;;;;6.67;6.67;;;;;19.71;41.69;100634.00;6234320;22;44780;-86
2022/06/03 05:00:01;;;;;;;;;7.33;7.33;;;;;19.70;41.54;100637.56;6215455;22;47611;-86
2022/06/03 05:02:50;;;;;;;;;7.33;7.33;;;;;19.67;41.54;100625.97;6232365;22;45480;-86
2022/06/03 05:05:50;;;;;;;;;9.67;9.67;;;;;19.45;41.79;100598.66;6233153;22;45232;-86
2022/06/03 05:09:03;;;;;;;;;8.00;8.00;;;;;19.68;42.43;100625.94;6234026;22;45375;-86
2022/06/03 05:12:14;;;;;;;;;7.33;7.00;;;;;19.72;41.32;100629.50;6233074;22;48002;-86
2022/06/03 05:15:14;;;;;;;;;6.33;6.33;;;;;19.70;41.76;100616.00;6261576;22;45314;-87
2022/06/03 05:18:17;;;;;;;;;6.67;6.67;;;;;19.63;41.57;100611.66;6233295;22;44769;-86
2022/06/03 05:21:22;;;;;;;;;5.67;5.67;;;;;19.66;41.16;100614.31;6229084;22;44797;-86
2022/06/03 05:24:30;;;;;;;;;6.00;5.00;;;;;19.46;41.05;100573.47;6222974;22;46808;-87
2022/06/03 05:26:56;;;;;;;;;7.00;5.67;;;;;19.68;41.55;100607.06;6259603;22;45354;-86
2022/06/03 05:29:45;;;;;;;;;6.67;6.67;;;;;19.75;41.12;100624.91;6259513;22;44675;-86
2022/06/03 05:33:01;;;;;;;;;9.00;8.00;;;;;19.85;41.13;100620.13;6258724;22;45236;-85
2022/06/03 05:35:58;;;;;;;;;7.33;7.33;;;;;19.61;40.86;100574.88;6259219;22;46816;-86
2022/06/03 05:38:54;;;;;;;;;8.00;6.00;;;;;19.97;40.96;100627.03;6257558;22;45340;-87
2022/06/03 05:45:11;;;;;;;;;7.33;7.00;;;;;19.99;41.31;100631.44;6261428;22;45267;-87
2022/06/03 05:48:16;;;;;;;;;5.00;5.00;;;;;20.05;40.72;100618.72;6260099;22;45415;-86
2022/06/03 05:51:33;;;;;;;;;6.33;6.33;;;;;20.08;40.91;100602.47;6261907;22;44731;-87
2022/06/03 05:54:31;;;;;;;;;7.33;7.33;;;;;20.30;40.93;100614.44;6258783;22;45345;-87
2022/06/03 05:57:28;;;;;;;;;6.33;6.33;;;;;20.40;40.85;100615.06;6259980;22;44918;-86
2022/06/03 06:00:46;;;;;;;;;;;;;;;;;;;;;
2022/06/03 06:03:33;;;;;;;;;8.33;8.33;;;;;20.52;40.57;100617.41;6257484;22;73019;-87
2022/06/03 06:06:40;;;;;;;;;8.33;8.33;;;;;20.66;40.82;100602.63;6262446;22;45811;-87
2022/06/03 06:09:52;;;;;;;;;7.00;7.00;;;;;20.75;40.72;100605.06;6259473;22;44793;-87
2022/06/03 06:12:52;;;;;;;;;8.00;8.00;;;;;20.83;40.38;100613.81;6257162;22;45117;-87
2022/06/03 06:40:48;;;;;;;;;8.33;8.33;;;;;21.41;39.62;100602.06;5113106;22;28587302;-85
2022/06/03 06:55:02;;;;;;;;;9.00;7.33;;;;;21.30;40.06;100595.19;6239306;22;45392;-85
2022/06/03 06:58:08;;;;;;;;;10.67;8.00;;;;;21.19;40.17;100564.94;6312856;22;44775;-85
2022/06/03 07:01:50;;;;;;;;;;;;;;;;;;;;;
2022/06/03 07:16:04;;;;;;;;;11.00;10.00;;;;;21.37;41.32;100588.66;6003868;23;45399;-86
2022/06/03 07:30:40;;;;;;;;;;;;;;;;;;;;;
2022/06/03 07:37:40;;;;;;;;;;;;;;;;;;;;;
2022/06/03 11:54:48;;;;;;;;;13.33;13.33;;;;;26.57;43.08;100621.47;6369763;22;44734;-84
2022/06/03 12:33:46;;;;;;;;;11.33;11.33;;;;;25.64;48.67;100637.16;6293572;22;45322;-85
2022/06/03 12:37:51;;;;;;;;;;;;;;;;;;;;;
2022/06/03 12:41:07;;;;;;;;;;;;;;;;;;;;;
2022/06/03 12:44:04;;;;;;;;;8.67;8.67;;;;;25.34;54.89;100637.72;6108308;23;74407;-87
2022/06/03 12:50:58;;;;;;;;;10.00;10.00;;;;;25.00;57.58;100634.84;5993939;23;44778;-88
2022/06/03 16:06:38;;;;;;;;;16.67;14.67;;;;;25.41;60.08;100618.38;6329887;22;45288;-88
2022/06/03 16:09:47;;;;;;;;;11.33;11.33;;;;;25.63;60.20;100620.91;6326269;22;45397;-88
2022/06/03 16:12:40;;;;;;;;;11.00;11.00;;;;;26.47;58.67;100600.16;6324946;22;44829;-87
2022/06/03 16:21:48;;;;;;;;;10.67;9.67;;;;;31.79;46.17;100591.06;6322638;22;47346;-88
2022/06/03 16:24:58;;;;;;;;;9.67;9.33;;;;;32.51;43.85;100592.78;6259678;22;44761;-87
2022/06/03 16:28:34;;;;;;;;;;;;;;;;;;;;;
2022/06/03 16:35:27;;;;;;;;;11.33;11.00;;;;;40.22;32.09;100591.25;6284577;22;45116;-87
2022/06/03 16:38:13;;;;;;;;;12.33;11.33;;;;;40.71;30.35;100596.72;6141963;23;45304;-88
2022/06/03 16:43:45;;;;;;;;;13.00;11.67;;;;;42.37;28.29;100598.38;6283904;22;46965;-89
2022/06/03 16:47:10;;;;;;;;;;;;;;;;;;;;;
2022/06/03 16:50:30;;;;;;;;;8.67;7.00;;;;;44.89;25.16;100565.91;6155608;22;72808;-89
2022/06/03 16:53:28;;;;;;;;;6.00;6.00;;;;;45.34;23.10;100587.91;6137939;23;45416;-87
2022/06/03 16:55:57;;;;;;;;;8.33;8.33;;;;;45.74;22.44;100588.03;6099236;23;45727;-88
2022/06/03 17:01:54;;;;;;;;;7.00;7.00;;;;;44.04;22.27;100592.19;6136763;23;44762;-87
2022/06/03 17:04:49;;;;;;;;;;;;;;;;;;;;;
2022/06/03 17:07:32;;;;;;;;;4.00;4.00;;;;;40.34;24.46;100606.59;6136122;23;65898;-88
2022/06/03 17:10:04;;;;;;;;;4.00;4.00;;;;;38.40;25.47;100580.53;6112364;23;45481;-87
2022/06/03 17:12:39;;;;;;;;;4.67;4.67;;;;;36.95;27.70;100591.69;6163223;23;45299;-87
2022/06/03 17:15:10;;;;;;;;;5.67;5.67;;;;;35.30;28.95;100564.19;6171640;23;44750;-87
2022/06/03 17:17:38;;;;;;;;;7.00;6.00;;;;;34.33;30.20;100592.25;6202529;22;45267;-87
2022/06/03 17:20:43;;;;;;;;;7.67;6.00;;;;;33.47;31.50;100598.63;6201774;22;47064;-86
2022/06/03 17:23:29;;;;;;;;;5.00;4.67;;;;;32.20;33.32;100579.59;6202840;22;45344;-86
2022/06/03 17:26:22;;;;;;;;;6.00;4.00;;;;;31.32;34.11;100568.94;6210607;22;45204;-87
2022/06/03 17:29:17;;;;;;;;;9.00;7.00;;;;;30.75;35.98;100578.63;6141377;22;45499;-87
2022/06/03 17:35:25;;;;;;;;;6.00;5.67;;;;;29.54;37.79;100609.91;6168472;22;45308;-86
2022/06/03 17:38:25;;;;;;;;;6.00;6.00;;;;;28.73;40.31;100575.94;6140161;22;45320;-86
2022/06/03 17:41:23;;;;;;;;;7.00;7.00;;;;;28.46;40.89;100608.66;6167186;22;44844;-87
2022/06/03 17:43:57;;;;;;;;;10.67;6.00;;;;;27.81;41.41;100575.28;6181075;22;45842;-86
2022/06/03 17:46:57;;;;;;;;;10.33;8.67;;;;;27.83;42.57;100615.19;6198667;22;45350;-86
2022/06/03 17:49:34;;;;;;;;;6.67;6.67;;;;;27.77;42.51;100606.50;6198562;22;45805;-86
2022/06/03 17:55:56;;;;;;;;;6.00;5.33;;;;;27.57;42.96;100614.03;6108039;23;45102;-87
2022/06/03 17:58:36;;;;;;;;;7.33;7.33;;;;;27.36;44.06;100616.16;6108792;23;44755;-87
2022/06/03 18:01:07;;;;;;;;;9.00;9.00;;;;;27.00;45.12;100609.06;6106724;23;44737;-87
2022/06/03 18:03:59;;;;;;;;;7.33;7.00;;;;;26.82;45.30;100621.91;6107059;23;45328;-87
2022/06/03 18:06:45;;;;;;;;;6.00;6.00;;;;;26.57;45.86;100622.34;6144666;23;45479;-87
2022/06/03 18:09:49;;;;;;;;;7.33;7.00;;;;;26.40;45.60;100611.47;6171069;23;45639;-86
2022/06/03 18:12:21;;;;;;;;;8.33;8.33;;;;;26.05;47.06;100589.69;6110662;23;45334;-86
2022/06/03 18:15:14;;;;;;;;;8.00;7.33;;;;;26.11;46.71;100613.91;6111768;23;45371;-87
2022/06/03 18:18:06;;;;;;;;;8.33;8.33;;;;;25.78;47.29;100579.25;6135849;23;45360;-87
2022/06/03 18:20:50;;;;;;;;;6.33;6.33;;;;;25.75;47.42;100617.53;6135947;23;45344;-86
2022/06/03 18:23:54;;;;;;;;;6.33;6.33;;;;;25.46;48.78;100621.75;6136115;23;45843;-86
2022/06/03 18:26:47;;;;;;;;;9.67;9.67;;;;;25.26;49.84;100615.44;6204297;22;45268;-86
2022/06/03 18:30:00;;;;;;;;;7.67;7.67;;;;;25.06;49.90;100596.44;6232640;22;45699;-87
2022/06/03 18:32:50;;;;;;;;;9.33;9.33;;;;;25.11;51.65;100616.19;6225180;22;44642;-87
2022/06/03 18:35:44;;;;;;;;;9.00;8.33;;;;;25.05;51.04;100616.47;6257642;22;45473;-87
2022/06/03 18:38:23;;;;;;;;;9.00;8.33;;;;;25.04;50.51;100618.28;6230805;22;45245;-86
2022/06/03 18:41:26;;;;;;;;;10.00;10.00;;;;;25.05;51.80;100616.47;6255140;22;47551;-86
2022/06/03 18:44:13;;;;;;;;;7.00;7.00;;;;;24.90;50.82;100589.03;6255106;22;45391;-87
2022/06/03 18:46:53;;;;;;;;;9.33;9.33;;;;;25.12;50.68;100607.03;6259938;22;45282;-87
2022/06/03 18:49:56;;;;;;;;;8.67;8.33;;;;;25.18;51.20;100606.75;6289598;22;45436;-87
2022/06/03 18:52:33;;;;;;;;;9.00;9.00;;;;;25.09;51.91;100609.94;6324120;22;46884;-87
2022/06/03 18:55:16;;;;;;;;;12.00;10.00;;;;;24.93;52.20;100607.06;6324405;22;45318;-87
2022/06/03 18:58:36;;;;;;;;;12.00;12.00;;;;;24.77;51.93;100600.59;6323790;22;45241;-87
2022/06/03 19:01:13;;;;;;;;;10.00;9.67;;;;;24.63;54.04;100595.78;6231375;22;45479;-87
2022/06/03 19:04:09;;;;;;;;;13.00;12.00;;;;;24.48;54.36;100602.78;6255902;22;45324;-86
2022/06/03 19:06:57;;;;;;;;;12.33;12.33;;;;;24.09;54.67;100563.75;6257724;22;45397;-87
2022/06/03 19:09:37;;;;;;;;;13.00;13.00;;;;;24.26;55.79;100611.91;6232256;22;44746;-87
2022/06/03 19:12:42;;;;;;;;;14.00;13.00;;;;;24.14;57.12;100613.34;6231042;22;45377;-86
2022/06/03 19:15:42;;;;;;;;;14.00;14.00;;;;;24.04;56.99;100603.84;6153405;23;47105;-87
2022/06/03 19:18:35;;;;;;;;;14.33;14.33;;;;;23.95;58.39;100596.06;6076998;23;45215;-87
2022/06/03 19:21:23;;;;;;;;;14.33;14.33;;;;;23.75;57.82;100578.81;6076431;23;45362;-87
2022/06/03 19:24:16;;;;;;;;;17.33;15.00;;;;;23.80;59.54;100602.19;6055476;23;44805;-87
2022/06/03 19:26:52;;;;;;;;;15.33;14.67;;;;;23.42;59.72;100550.38;6078186;23;46675;-87
2022/06/03 19:29:23;;;;;;;;;14.67;14.67;;;;;23.64;61.65;100597.38;6077150;23;45303;-87
2022/06/03 19:31:52;;;;;;;;;14.00;13.00;;;;;23.46;61.92;100581.88;6077031;23;45353;-87
2022/06/03 19:34:48;;;;;;;;;18.00;16.67;;;;;23.32;61.25;100575.19;6086107;23;45113;-87
2022/06/03 19:37:43;;;;;;;;;18.00;17.33;;;;;23.34;61.51;100588.69;6104459;23;47819;-87
2022/06/03 19:40:20;;;;;;;;;19.00;19.00;;;;;23.34;60.89;100605.84;6081856;23;45317;-85
2022/06/03 19:43:20;;;;;;;;;;;;;;;;;;;;;
2022/06/03 19:46:07;;;;;;;;;16.67;15.00;;;;;23.24;60.93;100607.19;6105327;23;66798;-87
2022/06/03 19:48:59;;;;;;;;;17.33;17.33;;;;;23.17;62.16;100608.38;6107951;23;45683;-87
2022/06/03 19:51:57;;;;;;;;;18.67;17.00;;;;;23.13;62.94;100610.34;6124295;23;45487;-86
2022/06/03 19:54:42;;;;;;;;;21.33;19.00;;;;;22.74;62.49;100561.22;6179099;22;45253;-87
2022/06/03 19:57:38;;;;;;;;;17.33;17.00;;;;;23.01;61.89;100623.47;6295859;22;45432;-87
2022/06/03 20:00:07;;;;;;;;;16.67;16.67;;;;;22.72;63.39;100584.81;6295680;22;46724;-86
2022/06/03 20:03:14;;;;;;;;;18.00;18.00;;;;;22.76;62.88;100608.13;6294878;22;45397;-86
2022/06/03 20:05:47;;;;;;;;;19.00;18.33;;;;;22.82;63.07;100640.44;6227167;22;45519;-86
2022/06/03 20:08:23;;;;;;;;;19.67;19.00;;;;;22.66;63.76;100618.47;6205448;22;45362;-86
2022/06/03 20:14:04;;;;;;;;;22.67;22.00;;;;;22.60;63.88;100634.06;6207134;22;44714;-86
2022/06/03 20:16:46;;;;;;;;;19.67;18.33;;;;;22.50;64.45;100623.59;6199264;22;45418;-88
2022/06/03 20:19:16;;;;;;;;;22.67;19.67;;;;;22.59;64.83;100654.88;6227889;22;45640;-87
2022/06/03 20:21:48;;;;;;;;;18.00;17.33;;;;;22.65;65.22;100665.47;6226686;22;47092;-86
2022/06/03 20:24:28;;;;;;;;;17.67;17.67;;;;;22.62;65.53;100659.28;6227266;22;45454;-86
2022/06/03 20:27:22;;;;;;;;;22.00;21.00;;;;;22.57;66.08;100657.63;6228560;22;45287;-86
2022/06/03 20:30:29;;;;;;;;;25.00;22.00;;;;;22.57;66.04;100660.34;6228964;22;45402;-87
2022/06/03 20:33:31;;;;;;;;;23.00;23.00;;;;;22.51;70.47;100666.00;6203470;22;47525;-87
2022/06/03 20:36:04;;;;;;;;;24.67;23.67;;;;;22.43;73.22;100657.25;6230160;22;45201;-87
2022/06/03 20:38:49;;;;;;;;;23.00;23.00;;;;;22.33;72.15;100656.69;6222184;22;44836;-87
2022/06/03 20:41:30;;;;;;;;;28.00;25.33;;;;;22.33;74.23;100651.28;6209262;22;44943;-87
2022/06/03 20:44:10;;;;;;;;;28.67;27.67;;;;;22.28;75.54;100649.69;6307150;22;45284;-87
2022/06/03 20:46:57;;;;;;;;;27.67;27.67;;;;;21.95;81.93;100625.53;6356361;22;45262;-86
2022/06/03 20:49:51;;;;;;;;;27.00;25.00;;;;;22.11;84.05;100651.13;6327738;22;45247;-86
2022/06/03 20:52:32;;;;;;;;;27.33;27.33;;;;;21.97;82.63;100638.06;6354357;22;45325;-88
2022/06/03 20:55:13;;;;;;;;;28.67;28.67;;;;;21.76;83.41;100617.16;6327856;22;45555;-87
2022/06/03 20:57:41;;;;;;;;;33.33;30.00;;;;;21.90;85.24;100647.34;6353268;22;45356;-86
2022/06/03 21:00:24;;;;;;;;;29.00;29.00;;;;;21.91;89.80;100659.94;6328228;22;44761;-86
2022/06/03 21:03:04;;;;;;;;;29.00;29.00;;;;;21.84;95.34;100665.66;6326480;22;45279;-86
2022/06/03 21:14:02;;;;;;;;;29.00;29.00;;;;;21.50;93.75;100656.81;6356328;22;44702;-87
2022/06/03 21:16:34;;;;;;;;;30.67;29.33;;;;;21.60;93.30;100684.47;6327586;22;45489;-86
2022/06/03 21:19:00;;;;;;;;;32.00;30.00;;;;;21.30;97.36;100643.00;6328076;22;45274;-87
2022/06/03 21:21:42;;;;;;;;;27.33;26.33;;;;;21.42;93.68;100663.38;6329805;22;45548;-87
2022/06/03 21:24:29;;;;;;;;;28.00;27.00;;;;;21.24;92.90;100638.66;6328148;22;45606;-87
2022/06/03 21:26:56;;;;;;;;;26.67;26.67;;;;;21.15;92.86;100633.56;6354556;22;45617;-86
2022/06/03 21:29:22;;;;;;;;;28.33;26.33;;;;;21.40;94.24;100678.78;6328191;22;45459;-87
2022/06/03 21:32:04;;;;;;;;;24.33;24.33;;;;;21.38;94.53;100679.69;6327897;22;45394;-87
2022/06/03 21:34:48;;;;;;;;;29.67;27.67;;;;;21.31;97.58;100682.63;6355702;22;45269;-86
2022/06/03 21:37:43;;;;;;;;;28.00;27.00;;;;;21.25;97.93;100681.03;6326787;22;46539;-86
2022/06/03 21:40:22;;;;;;;;;26.00;26.00;;;;;21.01;99.06;100649.34;6312622;22;45393;-87
2022/06/03 21:43:03;;;;;;;;;27.67;26.67;;;;;20.93;97.54;100645.03;6327533;22;45642;-87
2022/06/03 21:45:43;;;;;;;;;26.33;26.00;;;;;20.81;98.73;100623.78;6326435;22;45127;-86
2022/06/03 21:48:35;;;;;;;;;25.33;25.33;;;;;21.00;99.86;100666.47;6355159;22;45331;-87
2022/06/03 21:51:28;;;;;;;;;23.33;23.33;;;;;20.92;100.00;100674.81;6327079;22;45383;-87
2022/06/03 21:54:19;;;;;;;;;27.33;26.00;;;;;20.58;100.00;100638.88;6326763;22;45149;-87
2022/06/03 21:57:00;;;;;;;;;29.33;25.67;;;;;20.77;100.00;100678.88;6325640;22;45329;-86
2022/06/03 22:00:07;;;;;;;;;29.00;27.00;;;;;20.75;100.00;100680.72;6325675;22;45345;-87
2022/06/03 22:02:38;;;;;;;;;26.00;24.33;;;;;20.53;100.00;100656.97;6327279;22;44779;-87
2022/06/03 22:05:14;;;;;;;;;25.00;24.33;;;;;20.64;100.00;100681.03;6326342;22;45297;-86
2022/06/03 22:07:48;;;;;;;;;22.67;21.33;;;;;20.47;100.00;100676.06;6356089;22;45303;-86
2022/06/03 22:10:13;;;;;;;;;25.67;25.67;;;;;20.51;100.00;100690.38;6353969;22;46358;-87
2022/06/03 22:12:44;;;;;;;;;30.00;30.00;;;;;20.24;99.57;100641.59;6353343;22;45234;-87
2022/06/03 22:15:25;;;;;;;;;26.00;24.33;;;;;20.24;98.89;100636.22;6325274;22;44773;-87
2022/06/03 22:17:52;;;;;;;;;27.00;27.00;;;;;20.53;99.23;100677.72;6352171;22;45434;-86
2022/06/03 22:20:51;;;;;;;;;34.00;31.33;;;;;20.31;99.98;100655.81;6323639;22;45238;-86
2022/06/03 22:23:23;;;;;;;;;31.00;29.33;;;;;20.32;99.40;100671.06;6325322;22;45320;-87
2022/06/03 22:26:22;;;;;;;;;27.33;26.67;;;;;20.58;98.60;100717.22;6354952;22;45268;-87
2022/06/03 22:29:09;;;;;;;;;32.33;31.33;;;;;20.60;98.80;100724.38;6326103;22;45313;-87
2022/06/03 22:31:54;;;;;;;;;34.67;31.33;;;;;20.35;98.38;100690.78;6326664;22;45537;-86
2022/06/03 22:34:48;;;;;;;;;28.00;28.00;;;;;20.65;97.92;100736.84;6326553;22;45313;-86
2022/06/03 22:40:57;;;;;;;;;28.67;27.00;;;;;20.64;97.84;100739.59;6355220;22;44754;-87
2022/06/03 22:43:46;;;;;;;;;29.33;27.33;;;;;20.52;99.73;100730.88;6353467;22;45201;-87
2022/06/03 22:46:23;;;;;;;;;28.33;28.33;;;;;20.28;99.10;100712.59;6326138;22;44793;-87
2022/06/03 22:48:51;;;;;;;;;38.33;32.67;;;;;20.42;98.18;100737.47;6354596;22;45396;-86
2022/06/03 22:51:17;;;;;;;;;28.67;27.67;;;;;20.14;97.95;100692.28;6324604;22;45354;-87
2022/06/03 22:53:48;;;;;;;;;32.00;31.00;;;;;20.10;98.10;100679.78;6350655;22;46830;-87
2022/06/03 22:56:22;;;;;;;;;33.33;32.00;;;;;20.34;98.14;100721.44;6350699;22;44791;-86
2022/06/03 22:58:49;;;;;;;;;30.33;30.00;;;;;20.15;98.00;100704.81;6326404;22;45356;-87
2022/06/03 23:01:19;;;;;;;;;31.67;30.00;;;;;20.42;98.04;100744.66;6353299;22;45369;-86
2022/06/03 23:03:46;;;;;;;;;34.67;31.67;;;;;20.13;98.16;100695.88;6325461;22;47023;-87
2022/06/03 23:06:15;;;;;;;;;32.33;31.33;;;;;20.27;99.17;100718.94;6328364;22;44823;-86
2022/06/03 23:08:52;;;;;;;;;33.00;30.00;;;;;20.14;98.96;100697.66;6330324;22;44766;-87
2022/06/03 23:11:52;;;;;;;;;37.00;32.67;;;;;20.21;99.48;100706.50;6355476;22;45360;-87
2022/06/03 23:14:17;;;;;;;;;34.00;32.33;;;;;19.96;100.00;100681.94;6350786;22;45579;-87
2022/06/03 23:16:46;;;;;;;;;32.67;30.67;;;;;19.92;99.75;100675.75;6354050;22;45325;-86
2022/06/03 23:19:15;;;;;;;;;31.67;30.67;;;;;20.07;99.47;100701.44;6328306;22;45284;-87
2022/06/03 23:21:41;;;;;;;;;35.67;31.67;;;;;20.02;98.58;100698.00;6354970;22;44733;-87
2022/06/03 23:24:07;;;;;;;;;31.33;30.00;;;;;19.97;98.96;100697.22;6325855;22;45191;-87
2022/06/03 23:26:32;;;;;;;;;35.67;32.00;;;;;20.02;99.22;100703.38;6327395;22;44864;-87
2022/06/03 23:28:59;;;;;;;;;33.67;32.33;;;;;19.82;98.96;100674.19;6354669;22;45482;-87